sensor_id;sensor_type;location;lat;lon;timestamp;pressure;altitude;pressure_sealevel;temperature;humidity
40708;BME280;26392;42.696;23.350;2023-01-01T00:01:55;96777.94;;;3.90;100.00
40708;BME280;26392;42.696;23.350;2023-01-01T00:04:20;96779.06;;;3.96;100.00
40708;BME280;26392;42.696;23.350;2023-01-01T00:06:46;96778.94;;;3.89;100.00
40708;BME280;26392;42.696;23.350;2023-01-01T00:09:11;96779.47;;;3.85;100.00
40708;BME280;26392;42.696;23.350;2023-01-01T00:11:55;96784.88;;;3.85;100.00
40708;BME280;26392;42.696;23.350;2023-01-01T00:14:21;96784.59;;;3.71;100.00
40708;BME280;26392;42.696;23.350;2023-01-01T00:16:47;96781.97;;;3.55;100.00
40708;BME280;26392;42.696;23.350;2023-01-01T00:19:12;96791.06;;;3.62;100.00
40708;BME280;26392;42.696;23.350;2023-01-01T00:21:37;96793.75;;;3.62;100.00
40708;BME280;26392;42.696;23.350;2023-01-01T00:24:04;96787.22;;;3.48;100.00
40708;BME280;26392;42.696;23.350;2023-01-01T00:26:30;96797.81;;;3.50;100.00
40708;BME280;26392;42.696;23.350;2023-01-01T00:28:56;96796.00;;;3.50;100.00
40708;BME280;26392;42.696;23.350;2023-01-01T00:31:21;96800.72;;;3.48;100.00
40708;BME280;26392;42.696;23.350;2023-01-01T00:33:52;96808.59;;;3.50;100.00
40708;BME280;26392;42.696;23.350;2023-01-01T00:36:19;96802.22;;;3.51;100.00
40708;BME280;26392;42.696;23.350;2023-01-01T00:38:45;96794.16;;;3.43;100.00
40708;BME280;26392;42.696;23.350;2023-01-01T00:41:11;96798.84;;;3.49;100.00
40708;BME280;26392;42.696;23.350;2023-01-01T00:43:37;96797.34;;;3.46;100.00
40708;BME280;26392;42.696;23.350;2023-01-01T00:46:04;96800.19;;;3.53;100.00
40708;BME280;26392;42.696;23.350;2023-01-01T00:48:30;96804.59;;;3.46;100.00
40708;BME280;26392;42.696;23.350;2023-01-01T00:50:55;96810.66;;;3.48;100.00
40708;BME280;26392;42.696;23.350;2023-01-01T00:53:21;96802.56;;;3.48;100.00
40708;BME280;26392;42.696;23.350;2023-01-01T00:55:48;96800.34;;;3.51;100.00
40708;BME280;26392;42.696;23.350;2023-01-01T00:58:14;96804.25;;;3.49;100.00
40708;BME280;26392;42.696;23.350;2023-01-01T01:00:40;96800.38;;;3.43;100.00
40708;BME280;26392;42.696;23.350;2023-01-01T01:03:06;96793.31;;;3.42;100.00
40708;BME280;26392;42.696;23.350;2023-01-01T01:05:32;96799.56;;;3.43;100.00
40708;BME280;26392;42.696;23.350;2023-01-01T01:07:58;96798.38;;;3.45;100.00
40708;BME280;26392;42.696;23.350;2023-01-01T01:10:24;96799.19;;;3.46;100.00
40708;BME280;26392;42.696;23.350;2023-01-01T01:12:50;96794.84;;;3.45;100.00
40708;BME280;26392;42.696;23.350;2023-01-01T01:15:16;96799.19;;;3.46;100.00
40708;BME280;26392;42.696;23.350;2023-01-01T01:17:41;96801.38;;;3.50;100.00
40708;BME280;26392;42.696;23.350;2023-01-01T01:20:07;96790.25;;;3.53;100.00
40708;BME280;26392;42.696;23.350;2023-01-01T01:22:33;96794.97;;;3.51;100.00
40708;BME280;26392;42.696;23.350;2023-01-01T01:24:59;96798.97;;;3.55;100.00
40708;BME280;26392;42.696;23.350;2023-01-01T01:27:25;96790.75;;;3.49;100.00
40708;BME280;26392;42.696;23.350;2023-01-01T01:29:50;96775.28;;;3.51;100.00
40708;BME280;26392;42.696;23.350;2023-01-01T01:32:16;96778.34;;;3.40;100.00
40708;BME280;26392;42.696;23.350;2023-01-01T01:34:41;96786.78;;;3.36;100.00
40708;BME280;26392;42.696;23.350;2023-01-01T01:37:07;96785.09;;;3.35;100.00
40708;BME280;26392;42.696;23.350;2023-01-01T01:39:32;96786.25;;;3.33;100.00
40708;BME280;26392;42.696;23.350;2023-01-01T01:41:57;96786.94;;;3.35;100.00
40708;BME280;26392;42.696;23.350;2023-01-01T01:50:01;96781.56;;;3.35;100.00
40708;BME280;26392;42.696;23.350;2023-01-01T01:52:28;96777.88;;;3.28;100.00
40708;BME280;26392;42.696;23.350;2023-01-01T01:54:55;96791.16;;;3.38;100.00
40708;BME280;26392;42.696;23.350;2023-01-01T01:57:22;96789.28;;;3.38;100.00
40708;BME280;26392;42.696;23.350;2023-01-01T01:59:51;96790.34;;;3.29;100.00
40708;BME280;26392;42.696;23.350;2023-01-01T02:02:31;96794.97;;;2.96;100.00
40708;BME280;26392;42.696;23.350;2023-01-01T02:04:58;96804.06;;;3.03;100.00
40708;BME280;26392;42.696;23.350;2023-01-01T02:07:25;96809.94;;;3.06;100.00
40708;BME280;26392;42.696;23.350;2023-01-01T02:09:52;96800.69;;;3.01;100.00
40708;BME280;26392;42.696;23.350;2023-01-01T02:12:17;96798.34;;;2.98;100.00
40708;BME280;26392;42.696;23.350;2023-01-01T02:14:43;96804.41;;;3.00;100.00
40708;BME280;26392;42.696;23.350;2023-01-01T02:17:13;96796.81;;;2.95;100.00
40708;BME280;26392;42.696;23.350;2023-01-01T02:30:40;96800.19;;;2.89;100.00
40708;BME280;26392;42.696;23.350;2023-01-01T02:33:12;96810.09;;;2.88;100.00
40708;BME280;26392;42.696;23.350;2023-01-01T02:35:44;96806.59;;;2.88;100.00
40708;BME280;26392;42.696;23.350;2023-01-01T02:38:17;96808.91;;;2.99;100.00
40708;BME280;26392;42.696;23.350;2023-01-01T02:40:48;96800.53;;;2.94;100.00
40708;BME280;26392;42.696;23.350;2023-01-01T02:43:14;96802.03;;;2.88;100.00
40708;BME280;26392;42.696;23.350;2023-01-01T02:45:39;96800.72;;;2.84;100.00
40708;BME280;26392;42.696;23.350;2023-01-01T02:48:32;96804.22;;;2.85;100.00
40708;BME280;26392;42.696;23.350;2023-01-01T02:50:52;96802.38;;;2.85;100.00
40708;BME280;26392;42.696;23.350;2023-01-01T02:53:24;96803.88;;;2.96;100.00
40708;BME280;26392;42.696;23.350;2023-01-01T02:59:21;96797.00;;;2.77;100.00
40708;BME280;26392;42.696;23.350;2023-01-01T03:02:11;96791.63;;;2.77;100.00
40708;BME280;26392;42.696;23.350;2023-01-01T03:05:45;96786.06;;;2.79;100.00
40708;BME280;26392;42.696;23.350;2023-01-01T03:11:06;96801.38;;;2.86;100.00
40708;BME280;26392;42.696;23.350;2023-01-01T03:13:41;96797.66;;;2.87;100.00
40708;BME280;26392;42.696;23.350;2023-01-01T03:19:11;96797.69;;;2.79;100.00
40708;BME280;26392;42.696;23.350;2023-01-01T03:24:08;96810.47;;;2.77;100.00
40708;BME280;26392;42.696;23.350;2023-01-01T03:26:38;96809.28;;;2.80;100.00
40708;BME280;26392;42.696;23.350;2023-01-01T03:29:06;96797.00;;;2.77;100.00
40708;BME280;26392;42.696;23.350;2023-01-01T03:31:35;96790.97;;;2.75;100.00
40708;BME280;26392;42.696;23.350;2023-01-01T03:34:10;96785.94;;;2.72;100.00
40708;BME280;26392;42.696;23.350;2023-01-01T03:36:40;96784.91;;;2.65;100.00
40708;BME280;26392;42.696;23.350;2023-01-01T03:39:12;96794.84;;;2.73;100.00
40708;BME280;26392;42.696;23.350;2023-01-01T03:41:56;96798.38;;;2.65;100.00
40708;BME280;26392;42.696;23.350;2023-01-01T03:44:33;96791.13;;;2.49;100.00
40708;BME280;26392;42.696;23.350;2023-01-01T03:46:59;96794.31;;;2.20;100.00
40708;BME280;26392;42.696;23.350;2023-01-01T03:49:26;96797.69;;;2.22;100.00
40708;BME280;26392;42.696;23.350;2023-01-01T04:00:38;96801.69;;;2.10;100.00
40708;BME280;26392;42.696;23.350;2023-01-01T04:03:12;96800.34;;;1.97;100.00
40708;BME280;26392;42.696;23.350;2023-01-01T04:05:41;96794.97;;;1.97;100.00
40708;BME280;26392;42.696;23.350;2023-01-01T04:08:08;96800.19;;;1.99;100.00
40708;BME280;26392;42.696;23.350;2023-01-01T04:10:37;96795.13;;;2.04;100.00
40708;BME280;26392;42.696;23.350;2023-01-01T04:13:05;96807.41;;;2.07;100.00
40708;BME280;26392;42.696;23.350;2023-01-01T04:15:31;96802.88;;;2.15;100.00
40708;BME280;26392;42.696;23.350;2023-01-01T04:17:56;96809.78;;;2.10;100.00
40708;BME280;26392;42.696;23.350;2023-01-01T04:20:22;96809.25;;;1.98;100.00
40708;BME280;26392;42.696;23.350;2023-01-01T04:22:48;96790.63;;;1.96;100.00
40708;BME280;26392;42.696;23.350;2023-01-01T04:25:14;96796.66;;;2.07;100.00
40708;BME280;26392;42.696;23.350;2023-01-01T04:27:42;96808.09;;;2.00;100.00
40708;BME280;26392;42.696;23.350;2023-01-01T04:30:10;96808.59;;;2.04;100.00
40708;BME280;26392;42.696;23.350;2023-01-01T04:32:37;96807.22;;;1.92;100.00
40708;BME280;26392;42.696;23.350;2023-01-01T04:35:03;96817.28;;;1.82;100.00
40708;BME280;26392;42.696;23.350;2023-01-01T04:37:28;96815.78;;;1.87;100.00
40708;BME280;26392;42.696;23.350;2023-01-01T04:39:54;96814.78;;;1.88;100.00
40708;BME280;26392;42.696;23.350;2023-01-01T04:42:19;96811.38;;;1.78;100.00
40708;BME280;26392;42.696;23.350;2023-01-01T04:44:45;96804.44;;;1.59;100.00
40708;BME280;26392;42.696;23.350;2023-01-01T04:47:10;96818.19;;;1.56;100.00
40708;BME280;26392;42.696;23.350;2023-01-01T04:49:35;96814.84;;;1.62;100.00
40708;BME280;26392;42.696;23.350;2023-01-01T04:52:01;96803.44;;;1.60;100.00
40708;BME280;26392;42.696;23.350;2023-01-01T04:54:26;96809.31;;;1.55;100.00
40708;BME280;26392;42.696;23.350;2023-01-01T04:56:52;96807.34;;;1.66;100.00
40708;BME280;26392;42.696;23.350;2023-01-01T04:59:17;96814.38;;;1.67;100.00
40708;BME280;26392;42.696;23.350;2023-01-01T05:01:42;96791.66;;;1.53;100.00
40708;BME280;26392;42.696;23.350;2023-01-01T05:04:11;96810.28;;;1.46;100.00
40708;BME280;26392;42.696;23.350;2023-01-01T05:06:37;96817.69;;;1.52;100.00
40708;BME280;26392;42.696;23.350;2023-01-01T05:09:02;96815.81;;;1.45;100.00
40708;BME280;26392;42.696;23.350;2023-01-01T05:11:28;96821.34;;;1.43;100.00
40708;BME280;26392;42.696;23.350;2023-01-01T05:13:57;96823.72;;;1.46;100.00
40708;BME280;26392;42.696;23.350;2023-01-01T05:16:26;96820.66;;;1.41;100.00
40708;BME280;26392;42.696;23.350;2023-01-01T05:18:51;96820.34;;;1.44;100.00
40708;BME280;26392;42.696;23.350;2023-01-01T05:21:22;96819.00;;;1.40;100.00
40708;BME280;26392;42.696;23.350;2023-01-01T05:23:48;96824.09;;;1.25;100.00
40708;BME280;26392;42.696;23.350;2023-01-01T05:26:18;96832.53;;;1.30;100.00
40708;BME280;26392;42.696;23.350;2023-01-01T05:28:44;96822.84;;;1.38;100.00
40708;BME280;26392;42.696;23.350;2023-01-01T05:31:16;96835.94;;;1.15;100.00
40708;BME280;26392;42.696;23.350;2023-01-01T05:33:41;96835.94;;;1.15;100.00
40708;BME280;26392;42.696;23.350;2023-01-01T05:36:09;96840.28;;;1.07;100.00
40708;BME280;26392;42.696;23.350;2023-01-01T05:38:36;96844.66;;;1.08;100.00
40708;BME280;26392;42.696;23.350;2023-01-01T05:41:09;96844.03;;;0.88;100.00
40708;BME280;26392;42.696;23.350;2023-01-01T05:43:36;96839.50;;;0.89;100.00
40708;BME280;26392;42.696;23.350;2023-01-01T05:46:38;96830.50;;;0.98;100.00
40708;BME280;26392;42.696;23.350;2023-01-01T05:48:57;96830.13;;;1.19;100.00
40708;BME280;26392;42.696;23.350;2023-01-01T05:51:24;96831.00;;;1.28;100.00
40708;BME280;26392;42.696;23.350;2023-01-01T05:53:52;96827.81;;;1.24;100.00
40708;BME280;26392;42.696;23.350;2023-01-01T05:56:17;96827.63;;;1.26;100.00
40708;BME280;26392;42.696;23.350;2023-01-01T05:58:43;96836.00;;;1.23;100.00
40708;BME280;26392;42.696;23.350;2023-01-01T06:01:18;96836.41;;;1.36;100.00
40708;BME280;26392;42.696;23.350;2023-01-01T06:03:44;96823.72;;;1.46;100.00
40708;BME280;26392;42.696;23.350;2023-01-01T06:06:11;96831.25;;;1.51;100.00
40708;BME280;26392;42.696;23.350;2023-01-01T06:08:37;96824.56;;;1.47;100.00
40708;BME280;26392;42.696;23.350;2023-01-01T06:11:05;96833.13;;;1.50;100.00
40708;BME280;26392;42.696;23.350;2023-01-01T06:13:32;96836.31;;;1.54;100.00
40708;BME280;26392;42.696;23.350;2023-01-01T06:15:59;96838.84;;;1.55;100.00
40708;BME280;26392;42.696;23.350;2023-01-01T06:18:27;96834.50;;;1.54;100.00
40708;BME280;26392;42.696;23.350;2023-01-01T06:20:53;96841.53;;;1.55;100.00
40708;BME280;26392;42.696;23.350;2023-01-01T06:23:18;96848.00;;;1.37;100.00
40708;BME280;26392;42.696;23.350;2023-01-01T06:25:44;96852.22;;;1.39;100.00
40708;BME280;26392;42.696;23.350;2023-01-01T06:28:09;96856.81;;;1.55;100.00
40708;BME280;26392;42.696;23.350;2023-01-01T06:30:35;96847.25;;;1.52;100.00
40708;BME280;26392;42.696;23.350;2023-01-01T06:33:01;96845.72;;;1.50;100.00
40708;BME280;26392;42.696;23.350;2023-01-01T06:35:27;96849.88;;;1.44;100.00
40708;BME280;26392;42.696;23.350;2023-01-01T06:37:53;96859.09;;;1.42;100.00
40708;BME280;26392;42.696;23.350;2023-01-01T06:40:18;96862.03;;;1.22;100.00
40708;BME280;26392;42.696;23.350;2023-01-01T06:42:44;96859.84;;;1.26;100.00
40708;BME280;26392;42.696;23.350;2023-01-01T06:45:09;96864.44;;;1.33;100.00
40708;BME280;26392;42.696;23.350;2023-01-01T06:47:35;96881.94;;;1.38;100.00
40708;BME280;26392;42.696;23.350;2023-01-01T06:50:04;96880.06;;;1.38;100.00
40708;BME280;26392;42.696;23.350;2023-01-01T06:52:30;96882.94;;;1.45;100.00
40708;BME280;26392;42.696;23.350;2023-01-01T06:54:55;96886.53;;;1.53;100.00
40708;BME280;26392;42.696;23.350;2023-01-01T06:57:20;96886.59;;;1.70;100.00
40708;BME280;26392;42.696;23.350;2023-01-01T06:59:46;96885.28;;;1.74;100.00
40708;BME280;26392;42.696;23.350;2023-01-01T07:02:11;96887.66;;;1.77;100.00
40708;BME280;26392;42.696;23.350;2023-01-01T07:04:37;96891.56;;;1.91;100.00
40708;BME280;26392;42.696;23.350;2023-01-01T07:07:03;96882.84;;;1.97;100.00
40708;BME280;26392;42.696;23.350;2023-01-01T07:09:29;96885.69;;;1.95;100.00
40708;BME280;26392;42.696;23.350;2023-01-01T07:11:54;96882.19;;;2.03;100.00
40708;BME280;26392;42.696;23.350;2023-01-01T07:14:20;96874.97;;;2.04;100.00
40708;BME280;26392;42.696;23.350;2023-01-01T07:16:45;96884.72;;;2.13;100.00
40708;BME280;26392;42.696;23.350;2023-01-01T07:19:11;96886.09;;;2.17;100.00
40708;BME280;26392;42.696;23.350;2023-01-01T07:24:04;96876.72;;;2.37;100.00
40708;BME280;26392;42.696;23.350;2023-01-01T07:26:31;96877.06;;;2.42;100.00
40708;BME280;26392;42.696;23.350;2023-01-01T07:28:57;96880.25;;;2.46;100.00
40708;BME280;26392;42.696;23.350;2023-01-01T07:31:22;96883.78;;;2.55;100.00
40708;BME280;26392;42.696;23.350;2023-01-01T07:33:48;96883.16;;;2.53;100.00
40708;BME280;26392;42.696;23.350;2023-01-01T07:36:13;96879.59;;;2.44;100.00
40708;BME280;26392;42.696;23.350;2023-01-01T07:38:38;96889.19;;;2.71;100.00
40708;BME280;26392;42.696;23.350;2023-01-01T07:41:04;96886.84;;;2.84;100.00
40708;BME280;26392;42.696;23.350;2023-01-01T07:43:29;96893.41;;;2.82;100.00
40708;BME280;26392;42.696;23.350;2023-01-01T07:45:56;96887.00;;;2.99;100.00
40708;BME280;26392;42.696;23.350;2023-01-01T07:48:22;96875.41;;;2.58;100.00
40708;BME280;26392;42.696;23.350;2023-01-01T07:50:47;96881.47;;;2.76;100.00
40708;BME280;26392;42.696;23.350;2023-01-01T07:53:12;96876.41;;;2.98;100.00
40708;BME280;26392;42.696;23.350;2023-01-01T07:55:38;96881.81;;;2.89;100.00
40708;BME280;26392;42.696;23.350;2023-01-01T07:58:03;96884.84;;;2.95;100.00
40708;BME280;26392;42.696;23.350;2023-01-01T08:00:29;96882.31;;;2.77;100.00
40708;BME280;26392;42.696;23.350;2023-01-01T08:02:54;96886.16;;;2.74;100.00
40708;BME280;26392;42.696;23.350;2023-01-01T08:05:19;96884.16;;;2.92;100.00
40708;BME280;26392;42.696;23.350;2023-01-01T08:07:47;96885.53;;;2.80;100.00
40708;BME280;26392;42.696;23.350;2023-01-01T08:10:12;96878.78;;;2.92;100.00
40708;BME280;26392;42.696;23.350;2023-01-01T08:12:38;96893.22;;;3.16;100.00
40708;BME280;26392;42.696;23.350;2023-01-01T08:15:04;96906.19;;;3.29;100.00
40708;BME280;26392;42.696;23.350;2023-01-01T08:17:29;96905.69;;;3.33;100.00
40708;BME280;26392;42.696;23.350;2023-01-01T08:19:55;96903.81;;;3.34;100.00
40708;BME280;26392;42.696;23.350;2023-01-01T08:22:20;96904.44;;;3.52;100.00
40708;BME280;26392;42.696;23.350;2023-01-01T08:24:45;96899.72;;;3.54;100.00
40708;BME280;26392;42.696;23.350;2023-01-01T08:27:12;96897.03;;;3.54;100.00
40708;BME280;26392;42.696;23.350;2023-01-01T08:29:38;96899.38;;;3.57;100.00
40708;BME280;26392;42.696;23.350;2023-01-01T08:32:04;96906.25;;;3.76;100.00
40708;BME280;26392;42.696;23.350;2023-01-01T08:34:29;96902.66;;;3.92;100.00
40708;BME280;26392;42.696;23.350;2023-01-01T08:36:54;96892.28;;;4.12;100.00
40708;BME280;26392;42.696;23.350;2023-01-01T08:39:20;96895.28;;;4.17;100.00
40708;BME280;26392;42.696;23.350;2023-01-01T08:41:45;96892.75;;;4.16;100.00
40708;BME280;26392;42.696;23.350;2023-01-01T08:44:29;96898.03;;;4.09;100.00
40708;BME280;26392;42.696;23.350;2023-01-01T08:46:54;96901.31;;;4.19;100.00
40708;BME280;26392;42.696;23.350;2023-01-01T08:49:20;96896.63;;;4.13;100.00
40708;BME280;26392;42.696;23.350;2023-01-01T08:51:45;96895.97;;;4.11;100.00
40708;BME280;26392;42.696;23.350;2023-01-01T08:54:11;96891.69;;;4.25;100.00
40708;BME280;26392;42.696;23.350;2023-01-01T08:56:36;96892.22;;;4.52;100.00
40708;BME280;26392;42.696;23.350;2023-01-01T08:59:02;96886.78;;;4.60;100.00
40708;BME280;26392;42.696;23.350;2023-01-01T09:01:27;96892.75;;;4.70;100.00
40708;BME280;26392;42.696;23.350;2023-01-01T09:03:53;96887.50;;;4.77;100.00
40708;BME280;26392;42.696;23.350;2023-01-01T09:06:18;96882.88;;;4.85;100.00
40708;BME280;26392;42.696;23.350;2023-01-01T09:08:44;96880.25;;;4.92;100.00
40708;BME280;26392;42.696;23.350;2023-01-01T09:11:24;96873.69;;;5.09;100.00
40708;BME280;26392;42.696;23.350;2023-01-01T09:13:51;96862.88;;;5.09;100.00
40708;BME280;26392;42.696;23.350;2023-01-01T09:16:17;96868.59;;;5.14;100.00
40708;BME280;26392;42.696;23.350;2023-01-01T09:18:42;96866.03;;;4.98;100.00
40708;BME280;26392;42.696;23.350;2023-01-01T09:21:08;96862.50;;;5.12;100.00
40708;BME280;26392;42.696;23.350;2023-01-01T09:23:33;96857.69;;;5.23;100.00
40708;BME280;26392;42.696;23.350;2023-01-01T09:26:03;96859.88;;;5.27;100.00
40708;BME280;26392;42.696;23.350;2023-01-01T09:28:29;96860.16;;;5.32;100.00
40708;BME280;26392;42.696;23.350;2023-01-01T09:30:54;96848.97;;;5.35;100.00
40708;BME280;26392;42.696;23.350;2023-01-01T09:33:20;96851.00;;;5.48;100.00
40708;BME280;26392;42.696;23.350;2023-01-01T09:35:45;96842.56;;;5.66;100.00
40708;BME280;26392;42.696;23.350;2023-01-01T09:38:11;96840.59;;;5.75;100.00
40708;BME280;26392;42.696;23.350;2023-01-01T09:41:03;96835.16;;;5.90;100.00
40708;BME280;26392;42.696;23.350;2023-01-01T09:46:17;96834.22;;;6.12;100.00
40708;BME280;26392;42.696;23.350;2023-01-01T09:48:58;96835.97;;;6.20;100.00
40708;BME280;26392;42.696;23.350;2023-01-01T09:51:27;96833.25;;;6.20;100.00
40708;BME280;26392;42.696;23.350;2023-01-01T09:54:12;96826.84;;;6.42;100.00
40708;BME280;26392;42.696;23.350;2023-01-01T09:56:42;96827.38;;;6.53;100.00
40708;BME280;26392;42.696;23.350;2023-01-01T09:59:09;96824.53;;;6.61;100.00
40708;BME280;26392;42.696;23.350;2023-01-01T10:12:37;96821.19;;;7.08;100.00
40708;BME280;26392;42.696;23.350;2023-01-01T10:15:15;96813.72;;;7.10;100.00
40708;BME280;26392;42.696;23.350;2023-01-01T10:17:47;96798.06;;;7.06;100.00
40708;BME280;26392;42.696;23.350;2023-01-01T10:20:37;96805.66;;;7.17;100.00
40708;BME280;26392;42.696;23.350;2023-01-01T10:25:41;96795.72;;;7.03;100.00
40708;BME280;26392;42.696;23.350;2023-01-01T10:28:14;96798.13;;;7.19;100.00
40708;BME280;26392;42.696;23.350;2023-01-01T10:30:43;96797.66;;;7.37;100.00
40708;BME280;26392;42.696;23.350;2023-01-01T10:33:13;96801.50;;;7.56;100.00
40708;BME280;26392;42.696;23.350;2023-01-01T10:35:47;96789.72;;;7.77;100.00
40708;BME280;26392;42.696;23.350;2023-01-01T10:38:34;96794.34;;;7.90;100.00
40708;BME280;26392;42.696;23.350;2023-01-01T10:41:08;96778.78;;;8.05;100.00
40708;BME280;26392;42.696;23.350;2023-01-01T10:43:34;96778.59;;;8.13;100.00
40708;BME280;26392;42.696;23.350;2023-01-01T10:46:01;96770.69;;;8.18;100.00
40708;BME280;26392;42.696;23.350;2023-01-01T10:48:28;96764.25;;;8.33;100.00
40708;BME280;26392;42.696;23.350;2023-01-01T10:51:03;96766.81;;;8.41;100.00
40708;BME280;26392;42.696;23.350;2023-01-01T10:53:48;96763.88;;;8.62;100.00
40708;BME280;26392;42.696;23.350;2023-01-01T10:56:19;96766.22;;;8.72;100.00
40708;BME280;26392;42.696;23.350;2023-01-01T10:58:48;96753.88;;;8.76;100.00
40708;BME280;26392;42.696;23.350;2023-01-01T11:01:28;96744.47;;;8.72;100.00
40708;BME280;26392;42.696;23.350;2023-01-01T11:06:24;96739.47;;;8.69;100.00
40708;BME280;26392;42.696;23.350;2023-01-01T11:08:53;96744.25;;;8.80;100.00
40708;BME280;26392;42.696;23.350;2023-01-01T11:11:21;96738.00;;;8.86;100.00
40708;BME280;26392;42.696;23.350;2023-01-01T11:13:51;96728.97;;;9.06;100.00
40708;BME280;26392;42.696;23.350;2023-01-01T11:16:18;96735.88;;;9.15;100.00
40708;BME280;26392;42.696;23.350;2023-01-01T11:18:43;96728.50;;;9.29;100.00
40708;BME280;26392;42.696;23.350;2023-01-01T11:21:09;96728.50;;;9.29;100.00
40708;BME280;26392;42.696;23.350;2023-01-01T11:23:37;96719.94;;;9.38;100.00
40708;BME280;26392;42.696;23.350;2023-01-01T11:26:20;96717.63;;;9.42;100.00
40708;BME280;26392;42.696;23.350;2023-01-01T11:29:27;96714.88;;;9.49;100.00
40708;BME280;26392;42.696;23.350;2023-01-01T11:31:53;96707.78;;;9.41;100.00
40708;BME280;26392;42.696;23.350;2023-01-01T11:34:39;96705.25;;;9.53;100.00
40708;BME280;26392;42.696;23.350;2023-01-01T11:39:41;96705.25;;;9.53;100.00
40708;BME280;26392;42.696;23.350;2023-01-01T11:42:08;96697.88;;;9.60;100.00
40708;BME280;26392;42.696;23.350;2023-01-01T11:44:42;96694.84;;;9.81;100.00
40708;BME280;26392;42.696;23.350;2023-01-01T11:47:34;96687.84;;;9.99;100.00
40708;BME280;26392;42.696;23.350;2023-01-01T11:50:25;96681.19;;;9.95;100.00
40708;BME280;26392;42.696;23.350;2023-01-01T11:52:52;96686.22;;;9.91;100.00
40708;BME280;26392;42.696;23.350;2023-01-01T11:56:06;96676.13;;;9.98;100.00
40708;BME280;26392;42.696;23.350;2023-01-01T12:03:42;96672.84;;;10.21;100.00
40708;BME280;26392;42.696;23.350;2023-01-01T12:06:22;96670.72;;;10.30;100.00
40708;BME280;26392;42.696;23.350;2023-01-01T12:08:55;96671.97;;;10.34;100.00
40708;BME280;26392;42.696;23.350;2023-01-01T12:11:30;96668.97;;;10.42;100.00
40708;BME280;26392;42.696;23.350;2023-01-01T12:14:16;96678.19;;;10.41;100.00
40708;BME280;26392;42.696;23.350;2023-01-01T12:17:02;96675.25;;;10.43;100.00
40708;BME280;26392;42.696;23.350;2023-01-01T12:19:42;96670.19;;;10.46;100.00
40708;BME280;26392;42.696;23.350;2023-01-01T12:22:17;96661.56;;;10.49;100.00
40708;BME280;26392;42.696;23.350;2023-01-01T12:24:45;96653.19;;;10.51;100.00
40708;BME280;26392;42.696;23.350;2023-01-01T12:30:12;96649.13;;;10.60;100.00
40708;BME280;26392;42.696;23.350;2023-01-01T12:38:11;96648.16;;;10.73;100.00
40708;BME280;26392;42.696;23.350;2023-01-01T12:57:50;96648.44;;;11.08;97.38
40708;BME280;26392;42.696;23.350;2023-01-01T13:00:19;96637.81;;;11.00;97.28
40708;BME280;26392;42.696;23.350;2023-01-01T13:02:51;96637.06;;;11.11;97.23
40708;BME280;26392;42.696;23.350;2023-01-01T13:05:23;96638.69;;;11.19;96.25
40708;BME280;26392;42.696;23.350;2023-01-01T13:07:53;96637.84;;;11.18;96.26
40708;BME280;26392;42.696;23.350;2023-01-01T13:13:00;96642.47;;;11.18;96.09
40708;BME280;26392;42.696;23.350;2023-01-01T13:45:31;96634.13;;;11.31;94.99
40708;BME280;26392;42.696;23.350;2023-01-01T14:04:06;96635.81;;;11.32;95.36
40708;BME280;26392;42.696;23.350;2023-01-01T14:06:39;96635.88;;;11.26;96.04
40708;BME280;26392;42.696;23.350;2023-01-01T14:09:12;96638.38;;;11.27;96.01
40708;BME280;26392;42.696;23.350;2023-01-01T14:11:38;96640.94;;;11.22;96.47
40708;BME280;26392;42.696;23.350;2023-01-01T14:16:56;96639.66;;;11.25;96.26
40708;BME280;26392;42.696;23.350;2023-01-01T14:19:23;96636.56;;;11.21;96.97
40708;BME280;26392;42.696;23.350;2023-01-01T14:21:50;96639.06;;;11.23;96.43
40708;BME280;26392;42.696;23.350;2023-01-01T14:24:18;96636.13;;;11.24;96.43
40708;BME280;26392;42.696;23.350;2023-01-01T14:26:44;96642.03;;;11.21;96.52
40708;BME280;26392;42.696;23.350;2023-01-01T14:29:17;96637.94;;;11.12;97.04
40708;BME280;26392;42.696;23.350;2023-01-01T14:31:45;96636.25;;;10.92;98.18
40708;BME280;26392;42.696;23.350;2023-01-01T14:36:50;96632.94;;;10.84;99.65
40708;BME280;26392;42.696;23.350;2023-01-01T14:39:27;96640.44;;;10.70;100.00
40708;BME280;26392;42.696;23.350;2023-01-01T14:42:00;96643.00;;;10.65;100.00
40708;BME280;26392;42.696;23.350;2023-01-01T14:44:32;96648.09;;;10.55;100.00
40708;BME280;26392;42.696;23.350;2023-01-01T14:46:59;96642.66;;;10.55;100.00
40708;BME280;26392;42.696;23.350;2023-01-01T14:49:42;96648.00;;;10.43;100.00
40708;BME280;26392;42.696;23.350;2023-01-01T14:52:23;96649.19;;;10.53;100.00
40708;BME280;26392;42.696;23.350;2023-01-01T14:54:51;96647.34;;;10.47;100.00
40708;BME280;26392;42.696;23.350;2023-01-01T14:57:20;96644.22;;;10.44;100.00
40708;BME280;26392;42.696;23.350;2023-01-01T14:59:49;96645.09;;;10.38;100.00
40708;BME280;26392;42.696;23.350;2023-01-01T15:02:26;96647.38;;;10.41;100.00
40708;BME280;26392;42.696;23.350;2023-01-01T15:04:53;96645.41;;;10.23;100.00
40708;BME280;26392;42.696;23.350;2023-01-01T15:07:27;96649.88;;;10.11;100.00
40708;BME280;26392;42.696;23.350;2023-01-01T15:09:55;96657.69;;;10.00;100.00
40708;BME280;26392;42.696;23.350;2023-01-01T15:12:22;96648.72;;;9.93;100.00
40708;BME280;26392;42.696;23.350;2023-01-01T15:14:49;96650.00;;;9.91;100.00
40708;BME280;26392;42.696;23.350;2023-01-01T15:17:19;96655.09;;;9.80;100.00
40708;BME280;26392;42.696;23.350;2023-01-01T15:19:58;96646.50;;;9.77;100.00
40708;BME280;26392;42.696;23.350;2023-01-01T15:22:26;96651.59;;;9.67;100.00
40708;BME280;26392;42.696;23.350;2023-01-01T15:24:53;96644.91;;;9.62;100.00
40708;BME280;26392;42.696;23.350;2023-01-01T15:27:33;96648.94;;;9.53;100.00